Time;durP1;ratioP1;P1;durP2;ratioP2;P2;SDS_P1;SDS_P2;PMS_P1;PMS_P2;Temp;Humidity;BMP_temperature;BMP_pressure;BME280_temperature;BME280_humidity;BME280_pressure;Samples;Min_cycle;Max_cycle;Signal;HPM_P1;HPM_P2
2022/12/19 00:01:25;;;;;;;19.65;11.00;;;5.20;99.90;;;;;;5033642;28;20199;-78
2022/12/19 00:03:56;;;;;;;21.30;10.23;;;5.20;99.90;;;;;;5033619;28;20156;-81
2022/12/19 00:06:23;;;;;;;18.75;10.25;;;5.30;99.90;;;;;;5033610;28;20183;-80
2022/12/19 00:08:51;;;;;;;17.60;10.32;;;5.30;99.90;;;;;;5033505;28;20156;-78
2022/12/19 00:11:18;;;;;;;17.67;10.68;;;5.40;99.90;;;;;;5033365;28;20222;-78
2022/12/19 00:13:44;;;;;;;19.80;10.02;;;5.40;99.90;;;;;;5033615;28;20199;-79
2022/12/19 00:16:16;;;;;;;14.07;9.48;;;5.40;99.90;;;;;;5033622;28;20164;-79
2022/12/19 00:18:43;;;;;;;20.92;10.73;;;5.50;99.90;;;;;;5033535;28;20230;-79
2022/12/19 00:21:11;;;;;;;19.65;9.75;;;5.50;99.90;;;;;;5033255;28;20176;-82
2022/12/19 00:23:37;;;;;;;19.85;10.18;;;5.60;99.90;;;;;;5033462;28;20168;-80
2022/12/19 00:26:14;;;;;;;22.02;10.27;;;5.50;99.90;;;;;;5032925;28;20175;-81
2022/12/19 00:28:41;;;;;;;22.67;11.20;;;5.50;99.90;;;;;;5033724;28;20543;-80
2022/12/19 00:31:07;;;;;;;19.13;10.25;;;5.60;99.90;;;;;;5031959;28;20179;-80
2022/12/19 00:33:33;;;;;;;23.38;11.20;;;5.70;99.90;;;;;;5033043;28;20200;-79
2022/12/19 00:36:12;;;;;;;20.10;10.65;;;5.60;99.90;;;;;;5033312;28;20738;-79
2022/12/19 00:38:38;;;;;;;25.00;10.80;;;5.70;99.90;;;;;;5033005;28;20167;-78
2022/12/19 00:41:15;;;;;;;18.08;9.63;;;5.80;99.90;;;;;;5033059;28;20498;-79
2022/12/19 00:43:42;;;;;;;20.38;9.77;;;5.80;99.90;;;;;;5033123;28;20166;-79
2022/12/19 00:46:13;;;;;;;19.85;9.65;;;5.80;99.90;;;;;;5033458;28;20192;-78
2022/12/19 00:48:40;;;;;;;18.65;10.07;;;5.70;99.90;;;;;;5032827;28;20206;-80
2022/12/19 00:51:09;;;;;;;22.42;11.02;;;5.80;99.90;;;;;;5032782;28;20187;-79
2022/12/19 00:53:34;;;;;;;14.95;9.55;;;5.90;99.90;;;;;;5033039;28;20284;-78
2022/12/19 00:56:02;;;;;;;15.38;9.85;;;5.90;99.90;;;;;;5033056;28;20550;-80
2022/12/19 00:58:28;;;;;;;21.35;10.98;;;5.90;99.90;;;;;;5033144;28;20164;-79
2022/12/19 01:00:54;;;;;;;19.45;10.57;;;5.90;99.90;;;;;;5032977;28;20222;-78
2022/12/19 01:03:19;;;;;;;17.63;10.30;;;5.90;99.90;;;;;;5032663;28;20192;-78
2022/12/19 01:05:45;;;;;;;19.02;9.88;;;6.00;99.90;;;;;;5032393;28;20199;-79
2022/12/19 01:08:10;;;;;;;17.30;10.02;;;6.00;99.90;;;;;;5032516;28;20176;-79
2022/12/19 01:10:36;;;;;;;13.50;9.02;;;6.10;99.90;;;;;;5032751;28;20163;-78
2022/12/19 01:13:02;;;;;;;13.00;8.93;;;6.10;99.90;;;;;;5032186;28;20192;-78
2022/12/19 01:15:28;;;;;;;17.00;9.52;;;6.10;99.90;;;;;;5032700;28;20167;-79
2022/12/19 01:17:53;;;;;;;20.85;8.88;;;6.10;99.90;;;;;;5032270;28;20259;-78
2022/12/19 01:20:20;;;;;;;15.55;9.60;;;6.40;99.90;;;;;;5032392;28;20222;-79
2022/12/19 01:22:46;;;;;;;16.02;9.23;;;6.30;99.90;;;;;;5032388;28;20195;-79
2022/12/19 01:25:13;;;;;;;11.93;8.27;;;6.40;99.90;;;;;;5032320;28;20167;-80
2022/12/19 01:27:39;;;;;;;13.27;8.30;;;6.40;99.90;;;;;;5032227;28;20217;-78
2022/12/19 01:30:05;;;;;;;16.80;9.50;;;6.50;99.90;;;;;;5032229;28;20172;-79
2022/12/19 01:32:34;;;;;;;16.95;7.95;;;6.60;99.90;;;;;;5032170;28;20188;-80
2022/12/19 01:35:00;;;;;;;10.57;6.88;;;6.70;99.90;;;;;;5031236;28;20257;-79
2022/12/19 01:37:26;;;;;;;10.77;7.57;;;6.70;99.90;;;;;;5032930;28;20632;-80
2022/12/19 01:39:51;;;;;;;12.43;8.05;;;6.70;99.90;;;;;;5036364;28;20175;-80
2022/12/19 01:42:21;;;;;;;14.43;7.47;;;6.60;99.90;;;;;;5036556;28;20184;-79
2022/12/19 01:45:24;;;;;;;9.15;7.53;;;6.70;99.90;;;;;;5036551;28;20164;-78
2022/12/19 01:48:11;;;;;;;12.80;6.88;;;6.80;99.90;;;;;;5036395;28;20636;-80
2022/12/19 01:50:45;;;;;;;11.07;6.75;;;6.90;99.90;;;;;;5034816;28;20632;-78
2022/12/19 01:53:12;;;;;;;10.77;7.28;;;7.00;99.90;;;;;;5035747;28;20253;-79
2022/12/19 01:55:40;;;;;;;10.65;7.03;;;7.00;99.90;;;;;;5035058;28;20531;-78
2022/12/19 01:58:07;;;;;;;10.05;6.93;;;7.00;99.90;;;;;;5036316;28;20164;-78
2022/12/19 02:00:33;;;;;;;10.63;7.20;;;7.10;99.90;;;;;;5035011;28;20178;-78
2022/12/19 02:03:06;;;;;;;10.63;7.03;;;7.10;99.90;;;;;;5036005;28;20187;-78
2022/12/19 02:05:32;;;;;;;14.93;8.70;;;7.20;99.90;;;;;;5036101;28;20251;-78
2022/12/19 02:07:59;;;;;;;8.73;6.90;;;7.10;99.90;;;;;;5035720;28;20255;-79
2022/12/19 02:10:25;;;;;;;11.98;8.00;;;7.10;99.90;;;;;;5035795;28;20164;-79
2022/12/19 02:12:50;;;;;;;12.02;6.68;;;6.90;99.90;;;;;;5035618;28;20198;-78
2022/12/19 02:15:17;;;;;;;9.95;7.10;;;6.90;99.90;;;;;;5035796;28;20627;-78
2022/12/19 02:17:48;;;;;;;10.55;7.05;;;7.00;99.90;;;;;;5035781;28;20180;-78
2022/12/19 02:20:35;;;;;;;10.70;7.15;;;7.20;99.90;;;;;;5036027;28;20203;-78
2022/12/19 02:23:36;;;;;;;11.73;7.45;;;7.20;99.90;;;;;;5035593;28;20267;-79
2022/12/19 02:26:21;;;;;;;9.50;7.18;;;7.20;99.90;;;;;;5034459;28;20249;-79
2022/12/19 02:29:17;;;;;;;9.40;7.60;;;7.20;99.90;;;;;;5035769;28;20621;-79
2022/12/19 02:32:20;;;;;;;10.52;7.95;;;7.10;99.90;;;;;;5035043;28;20644;-79
2022/12/19 02:34:58;;;;;;;12.25;8.07;;;7.20;99.90;;;;;;5001855;28;20718;-79
2022/12/19 02:37:35;;;;;;;11.68;7.82;;;7.20;99.90;;;;;;5034079;28;20266;-78
2022/12/19 02:40:13;;;;;;;10.68;6.88;;;7.20;99.90;;;;;;5034770;28;20175;-79
2022/12/19 02:42:42;;;;;;;14.55;8.15;;;7.20;99.90;;;;;;5038740;28;20183;-80
2022/12/19 02:45:11;;;;;;;8.82;7.25;;;7.20;99.90;;;;;;5038377;28;20514;-77
2022/12/19 02:47:41;;;;;;;11.32;8.00;;;7.20;99.90;;;;;;5041199;28;20206;-78
2022/12/19 02:50:08;;;;;;;8.68;7.10;;;7.20;99.90;;;;;;5042508;28;20172;-78
2022/12/19 02:52:33;;;;;;;11.27;7.80;;;7.20;99.90;;;;;;5045131;28;20212;-78
2022/12/19 02:55:24;;;;;;;13.05;8.10;;;7.20;99.90;;;;;;5049152;28;20306;-79
2022/12/19 02:58:02;;;;;;;9.95;7.15;;;7.30;99.90;;;;;;5036461;28;20708;-78
2022/12/19 03:00:28;;;;;;;10.38;7.82;;;7.30;99.90;;;;;;5044145;28;20227;-78
2022/12/19 03:03:37;;;;;;;7.95;6.78;;;7.30;99.90;;;;;;5038371;28;20212;-78
2022/12/19 03:06:09;;;;;;;12.60;7.03;;;7.20;99.90;;;;;;5033543;28;20267;-79
2022/12/19 03:08:52;;;;;;;10.20;8.10;;;7.20;99.90;;;;;;5040511;28;20259;-79
2022/12/19 03:11:22;;;;;;;9.27;7.45;;;7.20;99.90;;;;;;5041056;28;20212;-78
2022/12/19 03:14:08;;;;;;;10.55;7.53;;;7.40;99.90;;;;;;5044310;28;20664;-78
2022/12/19 03:16:36;;;;;;;13.40;6.90;;;7.30;99.90;;;;;;5039602;28;20171;-79
2022/12/19 03:19:02;;;;;;;12.85;8.40;;;7.40;99.90;;;;;;5038785;28;20198;-79
2022/12/19 03:21:36;;;;;;;12.18;7.72;;;7.40;99.90;;;;;;5036385;28;20294;-80
2022/12/19 03:24:03;;;;;;;11.10;7.20;;;7.50;99.90;;;;;;5037946;28;20172;-79
2022/12/19 03:26:32;;;;;;;12.60;8.63;;;7.50;99.90;;;;;;5037415;28;20538;-79
2022/12/19 03:29:18;;;;;;;7.97;6.85;;;7.50;99.90;;;;;;5037888;28;20186;-78
2022/12/19 03:31:45;;;;;;;8.52;7.72;;;7.50;99.90;;;;;;5038869;28;20274;-78
2022/12/19 03:34:19;;;;;;;9.80;6.57;;;7.60;99.90;;;;;;5036452;28;20238;-80
2022/12/19 03:36:54;;;;;;;9.20;7.20;;;7.70;99.90;;;;;;5036730;28;20172;-79
2022/12/19 03:39:22;;;;;;;8.43;6.45;;;7.60;99.90;;;;;;5036404;28;20191;-79
2022/12/19 03:44:39;;;;;;;7.20;6.50;;;7.50;99.90;;;;;;5040833;28;20188;-79
2022/12/19 03:47:29;;;;;;;9.25;6.18;;;7.70;99.90;;;;;;5043269;28;20168;-78
2022/12/19 03:49:56;;;;;;;7.50;6.78;;;7.80;99.90;;;;;;5039866;28;20258;-78
2022/12/19 03:52:21;;;;;;;8.57;6.45;;;7.70;99.90;;;;;;5034018;28;20227;-79
2022/12/19 03:55:06;;;;;;;11.88;8.05;;;7.70;99.90;;;;;;5033775;28;20239;-82
2022/12/19 03:57:41;;;;;;;10.95;6.32;;;7.70;99.90;;;;;;5033866;28;20645;-82
2022/12/19 04:00:11;;;;;;;9.32;6.40;;;7.70;99.90;;;;;;5033061;28;20213;-79
2022/12/19 04:02:39;;;;;;;7.95;7.15;;;7.70;99.90;;;;;;5033615;28;20195;-81
2022/12/19 04:05:12;;;;;;;9.88;7.35;;;7.80;99.90;;;;;;5034304;28;20168;-79
2022/12/19 04:07:39;;;;;;;7.35;6.00;;;7.80;99.90;;;;;;5033883;28;20692;-79
2022/12/19 04:10:08;;;;;;;8.43;6.68;;;7.80;99.90;;;;;;5033606;28;20168;-79
2022/12/19 04:12:39;;;;;;;11.52;6.13;;;7.80;99.90;;;;;;5033254;28;20204;-81
2022/12/19 04:15:06;;;;;;;8.88;6.50;;;7.90;99.90;;;;;;5032012;28;20211;-80
2022/12/19 04:17:34;;;;;;;7.72;6.45;;;7.90;99.90;;;;;;5033393;28;20195;-81
2022/12/19 04:20:05;;;;;;;17.02;6.60;;;7.90;99.90;;;;;;5033323;28;20172;-80
2022/12/19 04:22:36;;;;;;;8.10;6.38;;;7.80;99.90;;;;;;5033182;28;20187;-84
2022/12/19 04:25:05;;;;;;;7.43;5.85;;;7.90;99.90;;;;;;5031899;28;20176;-81
2022/12/19 04:27:34;;;;;;;12.10;7.40;;;8.00;99.90;;;;;;5033439;28;20533;-80
2022/12/19 04:30:01;;;;;;;7.45;5.88;;;7.90;99.90;;;;;;5033517;28;20250;-80
2022/12/19 04:32:28;;;;;;;7.93;4.95;;;7.90;99.90;;;;;;5033113;28;20195;-81
2022/12/19 04:34:54;;;;;;;8.20;6.35;;;7.90;99.90;;;;;;5033127;28;20563;-80
2022/12/19 04:37:20;;;;;;;7.10;6.45;;;7.90;99.90;;;;;;5033107;28;20255;-79
2022/12/19 04:39:45;;;;;;;6.68;5.78;;;7.90;99.90;;;;;;5033042;28;20250;-79
2022/12/19 04:42:11;;;;;;;8.25;6.22;;;7.90;99.90;;;;;;5032991;28;20282;-81
2022/12/19 04:44:36;;;;;;;7.00;6.10;;;7.90;99.90;;;;;;5033143;28;20179;-81
2022/12/19 04:47:02;;;;;;;7.20;6.50;;;8.00;99.90;;;;;;5033222;28;20167;-81
2022/12/19 04:49:28;;;;;;;6.90;5.90;;;8.00;99.90;;;;;;5033114;28;20217;-79
2022/12/19 04:51:53;;;;;;;7.82;5.82;;;8.00;99.90;;;;;;5033329;28;20287;-80
2022/12/19 04:54:20;;;;;;;6.75;5.85;;;8.10;99.90;;;;;;5032842;28;20694;-79
2022/12/19 04:56:45;;;;;;;7.30;5.80;;;8.00;99.90;;;;;;5032638;28;20168;-79
2022/12/19 04:59:11;;;;;;;6.80;5.88;;;8.10;99.90;;;;;;5033093;28;20180;-79
2022/12/19 05:01:37;;;;;;;5.95;5.35;;;8.20;99.90;;;;;;5032903;28;20176;-79
2022/12/19 05:04:02;;;;;;;6.97;5.40;;;8.20;99.90;;;;;;5032865;28;20310;-78
2022/12/19 05:06:28;;;;;;;9.55;5.90;;;8.20;99.90;;;;;;5032907;28;20629;-80
2022/12/19 05:08:54;;;;;;;8.40;5.53;;;8.20;99.90;;;;;;5032647;28;20306;-78
2022/12/19 05:11:20;;;;;;;7.15;5.57;;;8.20;99.90;;;;;;5032643;28;20179;-79
2022/12/19 05:13:46;;;;;;;6.25;5.45;;;8.20;99.90;;;;;;5032349;28;20199;-81
2022/12/19 05:16:13;;;;;;;7.70;5.15;;;8.20;99.90;;;;;;5032574;28;20222;-80
2022/12/19 05:18:39;;;;;;;7.68;5.82;;;8.10;99.90;;;;;;5032828;28;20191;-79
2022/12/19 05:21:06;;;;;;;7.03;5.68;;;8.20;99.90;;;;;;5032421;28;20160;-79
2022/12/19 05:23:31;;;;;;;8.82;5.22;;;8.20;99.90;;;;;;5032411;28;20168;-80
2022/12/19 05:25:58;;;;;;;8.13;5.75;;;8.30;99.90;;;;;;5032477;28;20504;-79
2022/12/19 05:28:24;;;;;;;6.22;5.60;;;8.30;99.90;;;;;;5032205;28;20179;-78
2022/12/19 05:30:50;;;;;;;8.73;6.22;;;8.40;99.90;;;;;;5032345;28;20175;-79
2022/12/19 05:33:15;;;;;;;5.82;5.22;;;8.30;99.90;;;;;;5032195;28;20203;-79
2022/12/19 05:35:41;;;;;;;9.32;5.40;;;8.30;99.90;;;;;;5032264;28;20171;-79
2022/12/19 05:38:06;;;;;;;13.75;5.40;;;8.30;99.90;;;;;;5032234;28;20586;-80
2022/12/19 05:40:32;;;;;;;12.57;5.15;;;8.40;99.90;;;;;;5032482;28;20172;-79
2022/12/19 05:42:58;;;;;;;7.03;4.85;;;8.40;99.90;;;;;;5032201;28;20527;-78
2022/12/19 05:45:23;;;;;;;7.25;4.75;;;8.40;99.90;;;;;;5031803;28;20263;-79
2022/12/19 05:47:49;;;;;;;6.80;5.43;;;8.30;99.90;;;;;;5032030;28;20576;-80
2022/12/19 05:50:16;;;;;;;5.63;4.97;;;8.30;99.90;;;;;;5031917;28;20624;-79
2022/12/19 05:52:42;;;;;;;6.72;5.30;;;8.40;99.90;;;;;;5031778;28;20206;-79
2022/12/19 05:55:08;;;;;;;6.00;5.40;;;8.40;99.90;;;;;;5031976;28;20219;-79
2022/12/19 05:57:34;;;;;;;5.50;4.40;;;8.40;99.90;;;;;;5032247;28;20247;-79
2022/12/19 06:00:00;;;;;;;6.43;4.90;;;8.40;99.90;;;;;;5032426;28;20230;-79
2022/12/19 06:02:26;;;;;;;6.60;5.10;;;8.50;99.90;;;;;;5051189;28;20241;-79
2022/12/19 06:04:52;;;;;;;6.18;5.22;;;8.50;99.90;;;;;;5051981;28;20171;-82
2022/12/19 06:07:17;;;;;;;6.20;4.82;;;8.50;99.90;;;;;;5051942;28;20192;-81
2022/12/19 06:09:43;;;;;;;8.07;4.72;;;8.60;99.90;;;;;;5050788;28;20233;-84
2022/12/19 06:12:08;;;;;;;7.40;5.38;;;8.60;99.90;;;;;;5051650;28;20187;-82
2022/12/19 06:14:34;;;;;;;5.13;4.63;;;8.60;99.90;;;;;;5051377;28;20218;-80
2022/12/19 06:17:00;;;;;;;7.63;5.53;;;8.50;99.90;;;;;;5051783;28;20206;-79
2022/12/19 06:19:26;;;;;;;8.00;4.57;;;8.50;99.90;;;;;;5051953;28;20258;-78
2022/12/19 06:21:51;;;;;;;5.65;4.28;;;8.50;99.90;;;;;;5051993;28;20194;-79
2022/12/19 06:24:17;;;;;;;4.65;4.25;;;8.60;99.90;;;;;;5053943;28;20537;-79
2022/12/19 06:26:43;;;;;;;5.00;3.97;;;8.60;99.90;;;;;;5055188;28;20239;-83
2022/12/19 06:29:09;;;;;;;4.97;4.55;;;8.60;99.90;;;;;;5054224;28;20171;-78
2022/12/19 06:31:34;;;;;;;4.65;4.25;;;8.60;99.90;;;;;;5054709;28;20187;-79
2022/12/19 06:34:01;;;;;;;9.70;4.50;;;8.60;99.90;;;;;;5055244;28;20198;-79
2022/12/19 06:36:30;;;;;;;8.23;4.72;;;8.60;99.90;;;;;;5055254;28;20163;-80
2022/12/19 06:38:56;;;;;;;6.18;4.80;;;8.60;99.90;;;;;;5055212;28;20164;-79
2022/12/19 06:44:09;;;;;;;5.57;4.10;;;8.60;99.90;;;;;;5055282;28;20534;-80
2022/12/19 06:46:35;;;;;;;8.95;4.38;;;8.60;99.90;;;;;;5055648;28;20222;-78
2022/12/19 06:49:01;;;;;;;6.07;4.18;;;8.70;99.90;;;;;;5055328;28;20172;-79
2022/12/19 06:51:27;;;;;;;5.00;4.35;;;8.80;99.90;;;;;;5054511;28;20260;-78
2022/12/19 06:53:53;;;;;;;6.47;3.88;;;8.70;99.90;;;;;;5055070;28;20210;-81
2022/12/19 06:56:19;;;;;;;5.07;3.58;;;8.70;99.90;;;;;;5053808;28;20233;-83
2022/12/19 06:58:45;;;;;;;4.95;3.85;;;8.80;99.90;;;;;;5055049;28;20266;-78
2022/12/19 07:01:32;;;;;;;4.35;3.15;;;8.80;99.90;;;;;;5055037;28;20171;-82
2022/12/19 07:03:58;;;;;;;4.40;3.38;;;8.70;99.90;;;;;;5055055;28;20155;-80
2022/12/19 07:06:24;;;;;;;8.10;4.18;;;8.80;99.90;;;;;;5054974;28;20607;-81
2022/12/19 07:08:49;;;;;;;6.80;3.92;;;8.90;99.90;;;;;;5054166;28;20254;-79
2022/12/19 07:11:15;;;;;;;4.45;3.65;;;8.90;99.90;;;;;;5054881;28;20584;-82
2022/12/19 07:13:40;;;;;;;14.10;3.42;;;8.90;99.90;;;;;;5053716;28;20213;-82
2022/12/19 07:16:07;;;;;;;5.07;3.47;;;9.00;99.90;;;;;;5055496;28;20171;-79
2022/12/19 07:18:37;;;;;;;7.03;3.42;;;9.00;99.90;;;;;;5055246;28;20171;-80
2022/12/19 07:21:04;;;;;;;8.25;4.15;;;9.00;99.90;;;;;;5054529;28;20571;-78
2022/12/19 07:23:30;;;;;;;9.10;3.88;;;9.10;99.90;;;;;;5054586;28;20571;-79
2022/12/19 07:25:57;;;;;;;5.78;3.38;;;9.00;99.90;;;;;;5055061;28;20171;-81
2022/12/19 07:28:22;;;;;;;5.63;3.45;;;8.90;99.90;;;;;;5056325;28;20617;-80
2022/12/19 07:30:48;;;;;;;12.13;3.33;;;9.00;99.90;;;;;;5060471;28;20174;-79
2022/12/19 07:33:14;;;;;;;5.13;3.53;;;9.10;99.90;;;;;;5063211;28;20187;-81
2022/12/19 07:35:40;;;;;;;4.82;3.40;;;9.00;99.90;;;;;;5066257;28;20175;-80
2022/12/19 07:38:07;;;;;;;4.47;4.07;;;9.00;99.90;;;;;;5058267;28;20254;-82
2022/12/19 07:40:33;;;;;;;6.60;3.63;;;9.00;99.90;;;;;;5054749;28;20175;-79
2022/12/19 07:43:00;;;;;;;3.80;3.42;;;9.00;99.90;;;;;;5055191;28;20226;-81
2022/12/19 07:45:27;;;;;;;6.60;3.95;;;9.00;99.90;;;;;;5054544;28;20198;-84
2022/12/19 07:47:58;;;;;;;8.90;4.28;;;9.10;99.90;;;;;;5060786;28;20261;-81
2022/12/19 07:50:24;;;;;;;7.35;3.78;;;9.10;99.90;;;;;;5054972;28;20171;-79
2022/12/19 07:52:49;;;;;;;9.90;3.45;;;9.20;99.90;;;;;;5052940;28;20210;-79
2022/12/19 07:55:15;;;;;;;3.70;3.40;;;9.20;99.90;;;;;;5054552;28;20203;-79
2022/12/19 07:57:41;;;;;;;5.25;3.45;;;9.10;99.90;;;;;;5061074;28;20163;-78
2022/12/19 08:00:07;;;;;;;5.38;3.28;;;9.20;99.90;;;;;;5057245;28;20175;-80
2022/12/19 08:02:33;;;;;;;4.78;3.42;;;9.30;99.90;;;;;;5059163;28;20183;-80
2022/12/19 08:05:05;;;;;;;6.38;3.47;;;9.20;99.90;;;;;;5059552;28;20178;-83
2022/12/19 08:07:32;;;;;;;3.40;3.10;;;9.20;99.90;;;;;;5058258;28;20274;-85
2022/12/19 08:09:58;;;;;;;8.40;3.97;;;9.20;99.90;;;;;;5060174;28;20615;-81
2022/12/19 08:12:23;;;;;;;5.13;3.28;;;9.20;99.90;;;;;;5056282;28;20198;-80
2022/12/19 08:14:49;;;;;;;3.78;3.47;;;9.10;99.90;;;;;;5058374;28;20238;-80
2022/12/19 08:17:15;;;;;;;4.43;2.85;;;9.20;99.90;;;;;;5063644;28;20571;-80
2022/12/19 08:19:42;;;;;;;7.95;3.60;;;9.20;99.90;;;;;;5059598;28;20171;-80
2022/12/19 08:22:08;;;;;;;5.82;3.13;;;9.30;99.90;;;;;;5048028;28;20191;-80
2022/12/19 08:24:35;;;;;;;3.25;2.95;;;9.40;99.90;;;;;;5054600;28;20171;-80
2022/12/19 08:27:04;;;;;;;4.22;3.33;;;9.30;99.90;;;;;;5040440;28;20521;-82
2022/12/19 08:29:30;;;;;;;7.05;3.20;;;9.40;99.90;;;;;;5058986;28;20175;-80
2022/12/19 08:31:57;;;;;;;4.75;3.83;;;9.40;99.90;;;;;;5039905;28;20203;-80
2022/12/19 08:34:22;;;;;;;5.43;3.90;;;9.50;99.90;;;;;;5038266;28;20211;-78
2022/12/19 08:36:48;;;;;;;4.97;3.55;;;9.50;99.90;;;;;;5052337;28;20645;-80
2022/12/19 08:39:13;;;;;;;3.40;3.10;;;9.50;99.90;;;;;;5044272;28;20168;-79
2022/12/19 08:41:39;;;;;;;4.25;3.75;;;9.50;99.90;;;;;;5035275;28;20206;-79
2022/12/19 08:44:05;;;;;;;3.85;3.45;;;9.70;99.90;;;;;;5039562;28;20180;-77
2022/12/19 08:46:30;;;;;;;3.60;3.30;;;9.70;99.90;;;;;;5039515;28;20168;-80
2022/12/19 08:48:56;;;;;;;5.45;3.90;;;9.70;99.90;;;;;;5040609;28;20202;-78
2022/12/19 08:51:21;;;;;;;4.97;2.88;;;9.70;99.90;;;;;;5031582;28;20203;-77
2022/12/19 08:53:47;;;;;;;4.07;3.53;;;9.70;99.90;;;;;;5046913;28;20207;-79
2022/12/19 08:56:18;;;;;;;4.07;3.55;;;9.70;99.90;;;;;;5050953;28;20217;-78
2022/12/19 08:58:45;;;;;;;3.65;3.35;;;9.70;99.90;;;;;;5051729;28;20186;-78
2022/12/19 09:01:14;;;;;;;3.72;3.08;;;9.70;99.90;;;;;;5052110;28;20179;-79
2022/12/19 09:03:40;;;;;;;3.53;3.08;;;9.70;99.90;;;;;;5049930;28;20576;-79
2022/12/19 09:06:08;;;;;;;3.00;2.80;;;9.70;99.90;;;;;;5051753;28;20534;-77
2022/12/19 09:08:35;;;;;;;3.38;3.08;;;9.70;99.90;;;;;;5051822;28;20171;-78
2022/12/19 09:11:03;;;;;;;6.07;3.20;;;9.80;99.90;;;;;;5051603;28;20178;-78
2022/12/19 09:13:29;;;;;;;3.95;3.20;;;9.90;99.90;;;;;;5049617;28;20205;-80
2022/12/19 09:16:15;;;;;;;3.50;2.92;;;9.90;99.90;;;;;;5051028;28;20205;-78
2022/12/19 09:18:43;;;;;;;3.17;2.88;;;9.80;99.90;;;;;;5050347;28;20554;-80
2022/12/19 09:21:09;;;;;;;4.65;3.25;;;9.80;99.90;;;;;;5050235;28;20205;-83
2022/12/19 09:23:35;;;;;;;5.18;3.33;;;9.80;99.90;;;;;;5051390;28;20174;-80
2022/12/19 09:26:06;;;;;;;3.38;3.08;;;9.70;99.90;;;;;;5051861;28;20210;-81
2022/12/19 09:28:33;;;;;;;4.78;3.38;;;9.70;99.90;;;;;;5050651;28;20266;-83
2022/12/19 09:31:01;;;;;;;5.32;3.33;;;9.60;99.90;;;;;;5051451;28;20172;-80
2022/12/19 09:33:27;;;;;;;3.60;3.25;;;9.50;99.90;;;;;;5050680;28;20237;-82
2022/12/19 09:35:55;;;;;;;3.45;2.55;;;9.60;99.90;;;;;;5050520;28;20183;-83
2022/12/19 09:38:22;;;;;;;3.65;3.03;;;9.50;99.90;;;;;;5052288;28;20262;-82
2022/12/19 09:41:12;;;;;;;4.45;3.10;;;9.50;99.90;;;;;;5051689;28;20627;-85
2022/12/19 09:44:15;;;;;;;5.78;3.75;;;9.60;99.90;;;;;;5051007;28;20710;-81
2022/12/19 09:46:57;;;;;;;4.03;3.50;;;9.60;99.90;;;;;;5051575;28;20246;-80
2022/12/19 09:49:35;;;;;;;3.83;3.40;;;9.60;99.90;;;;;;5051222;28;20181;-81
2022/12/19 09:52:12;;;;;;;3.65;3.35;;;9.50;99.90;;;;;;5051117;28;20195;-81
2022/12/19 09:54:41;;;;;;;7.93;2.90;;;9.50;99.90;;;;;;5050529;28;20209;-85
2022/12/19 09:57:15;;;;;;;3.47;3.10;;;9.50;99.90;;;;;;5051837;28;20254;-82
2022/12/19 09:59:42;;;;;;;3.35;3.00;;;9.60;99.90;;;;;;5054419;28;20638;-85
2022/12/19 10:02:26;;;;;;;6.78;3.33;;;9.60;99.90;;;;;;5054691;28;20183;-86
2022/12/19 10:05:12;;;;;;;3.67;3.28;;;9.70;99.90;;;;;;5055976;28;20313;-87
2022/12/19 10:07:38;;;;;;;5.07;3.38;;;9.60;99.90;;;;;;5055501;28;20203;-86
2022/12/19 10:10:04;;;;;;;3.40;3.10;;;9.70;99.90;;;;;;5055722;28;20210;-85
2022/12/19 10:12:55;;;;;;;3.95;3.53;;;9.80;99.90;;;;;;5054013;28;20199;-82
2022/12/19 10:15:41;;;;;;;3.42;3.05;;;9.80;99.90;;;;;;5054498;28;20245;-81
2022/12/19 10:18:22;;;;;;;2.90;2.63;;;9.90;99.90;;;;;;5054345;28;20175;-79
2022/12/19 10:21:01;;;;;;;4.63;3.20;;;9.90;99.90;;;;;;5054550;28;20232;-80
2022/12/19 10:24:00;;;;;;;3.47;2.85;;;9.80;99.90;;;;;;5054031;28;20209;-79
2022/12/19 10:26:39;;;;;;;3.67;3.22;;;9.80;99.90;;;;;;5054636;28;20187;-81
2022/12/19 10:29:31;;;;;;;3.38;3.05;;;9.90;99.90;;;;;;5054112;28;20163;-83
2022/12/19 10:32:27;;;;;;;4.13;2.22;;;10.00;99.90;;;;;;5052634;28;20687;-81
2022/12/19 10:34:53;;;;;;;4.40;2.92;;;10.20;99.90;;;;;;5053871;28;20203;-80
2022/12/19 10:37:25;;;;;;;3.17;2.63;;;10.20;99.90;;;;;;5053110;28;20181;-79
2022/12/19 10:40:36;;;;;;;7.15;3.00;;;10.30;99.90;;;;;;5054524;28;20160;-79
2022/12/19 10:43:06;;;;;;;3.17;2.25;;;10.40;99.90;;;;;;5050919;28;20214;-82
2022/12/19 10:45:41;;;;;;;2.75;2.55;;;10.50;99.90;;;;;;5054000;28;20163;-80
2022/12/19 10:48:14;;;;;;;5.05;2.95;;;10.60;99.90;;;;;;5054439;28;20173;-80
2022/12/19 10:50:40;;;;;;;3.28;2.00;;;10.70;99.90;;;;;;5054876;28;20156;-82
2022/12/19 10:53:07;;;;;;;5.60;2.15;;;10.70;99.90;;;;;;5048128;28;20869;-83
2022/12/19 10:55:46;;;;;;;2.92;2.63;;;10.60;99.90;;;;;;5054351;28;20531;-90
2022/12/19 10:58:25;;;;;;;3.50;2.60;;;10.80;99.90;;;;;;5054825;28;20164;-80
2022/12/19 11:01:05;;;;;;;3.38;2.28;;;10.80;99.90;;;;;;5052761;28;20631;-85
2022/12/19 11:03:32;;;;;;;2.30;2.10;;;10.90;99.90;;;;;;5053392;28;20647;-80
2022/12/19 11:05:59;;;;;;;2.22;2.03;;;11.10;99.90;;;;;;5052258;28;20266;-81
2022/12/19 11:08:30;;;;;;;3.85;2.50;;;11.20;99.90;;;;;;5052994;28;21009;-80
2022/12/19 11:11:05;;;;;;;2.70;2.17;;;11.20;99.90;;;;;;5053661;28;20716;-81
2022/12/19 11:13:33;;;;;;;2.47;2.28;;;11.10;99.90;;;;;;5052682;28;20198;-82
2022/12/19 11:16:02;;;;;;;5.55;1.85;;;11.20;99.90;;;;;;5053344;28;20163;-81
2022/12/19 11:18:41;;;;;;;3.55;2.53;;;11.20;99.90;;;;;;5054625;28;20731;-82
2022/12/19 11:21:17;;;;;;;2.80;2.10;;;11.30;99.90;;;;;;5053438;28;20177;-79
2022/12/19 11:23:54;;;;;;;5.97;2.20;;;11.30;99.90;;;;;;5054730;28;20242;-80
2022/12/19 11:26:34;;;;;;;2.13;1.88;;;11.50;99.90;;;;;;5054562;28;20169;-84
2022/12/19 11:29:15;;;;;;;3.20;2.10;;;11.60;99.90;;;;;;5054392;28;20203;-81
2022/12/19 11:31:41;;;;;;;3.70;2.47;;;11.60;99.90;;;;;;5052420;28;20187;-86
2022/12/19 11:34:17;;;;;;;2.03;1.60;;;11.70;99.90;;;;;;5054380;28;20237;-81
2022/12/19 11:36:48;;;;;;;2.17;1.98;;;11.70;99.90;;;;;;5054242;28;20170;-82
2022/12/19 11:39:40;;;;;;;3.78;2.80;;;11.80;99.90;;;;;;5052866;28;20179;-86
2022/12/19 11:42:27;;;;;;;2.25;2.03;;;11.80;99.90;;;;;;5054144;28;20198;-82
2022/12/19 11:45:01;;;;;;;3.25;2.08;;;11.70;99.90;;;;;;5055166;28;20182;-84
2022/12/19 11:47:46;;;;;;;2.60;2.17;;;11.80;99.90;;;;;;5053203;28;20178;-85
2022/12/19 11:50:24;;;;;;;3.60;2.25;;;11.90;99.90;;;;;;5054221;28;20253;-80
2022/12/19 11:53:02;;;;;;;2.40;2.20;;;11.90;99.90;;;;;;5053678;28;20202;-85
2022/12/19 11:55:46;;;;;;;4.13;2.20;;;11.90;99.90;;;;;;5053626;28;20210;-84
2022/12/19 11:58:12;;;;;;;2.55;1.70;;;11.80;99.90;;;;;;5053970;28;20174;-80
2022/12/19 12:01:03;;;;;;;2.00;1.80;;;11.90;99.90;;;;;;5051283;28;20160;-81
2022/12/19 12:03:53;;;;;;;2.10;1.75;;;11.90;99.90;;;;;;5051749;28;20598;-82
2022/12/19 12:06:19;;;;;;;8.45;2.83;;;12.00;99.90;;;;;;5053946;28;20254;-85
2022/12/19 12:08:51;;;;;;;2.78;1.83;;;12.10;99.90;;;;;;5054248;28;20609;-83
2022/12/19 12:11:24;;;;;;;2.30;2.05;;;11.90;99.90;;;;;;5053835;28;20187;-81
2022/12/19 12:14:12;;;;;;;2.22;2.00;;;11.70;99.90;;;;;;5052417;28;20718;-81
2022/12/19 12:17:01;;;;;;;2.53;1.90;;;11.80;99.90;;;;;;5037965;28;20171;-82
2022/12/19 12:20:14;;;;;;;3.05;2.00;;;12.00;99.90;;;;;;5048371;28;20825;-81
2022/12/19 12:22:49;;;;;;;2.85;2.33;;;12.10;99.90;;;;;;4996772;28;21051;-84
2022/12/19 12:25:23;;;;;;;2.05;1.85;;;12.20;99.90;;;;;;5045448;28;20167;-83
2022/12/19 12:28:39;;;;;;;2.22;1.67;;;12.10;99.90;;;;;;5045868;28;20174;-82
2022/12/19 12:31:23;;;;;;;2.80;1.60;;;12.20;99.90;;;;;;5052222;28;20171;-82
2022/12/19 12:34:10;;;;;;;2.50;1.88;;;12.30;99.90;;;;;;5050566;28;20199;-82
2022/12/19 12:36:51;;;;;;;1.92;1.73;;;12.20;99.90;;;;;;5050496;28;20232;-83
2022/12/19 12:39:32;;;;;;;4.30;1.98;;;12.00;99.90;;;;;;5052453;28;20206;-80
2022/12/19 12:42:18;;;;;;;5.65;2.05;;;12.00;99.90;;;;;;5052245;28;20703;-81
2022/12/19 12:44:47;;;;;;;1.85;1.70;;;11.90;99.90;;;;;;5048790;28;20172;-81
2022/12/19 12:47:24;;;;;;;5.22;2.15;;;11.90;99.90;;;;;;5046130;28;20187;-82
2022/12/19 12:50:02;;;;;;;2.00;1.75;;;11.80;99.90;;;;;;5052526;28;20171;-81
2022/12/19 12:52:36;;;;;;;2.08;1.65;;;11.70;99.90;;;;;;5052587;28;20230;-82
2022/12/19 12:55:04;;;;;;;6.28;2.50;;;11.60;99.90;;;;;;5052567;28;20284;-81
2022/12/19 12:57:36;;;;;;;3.53;1.60;;;11.60;99.90;;;;;;5051551;28;20168;-81
2022/12/19 13:00:30;;;;;;;1.92;1.65;;;11.70;99.90;;;;;;5054155;28;20257;-81
2022/12/19 13:03:24;;;;;;;2.95;1.80;;;11.70;99.90;;;;;;5066058;28;20242;-83
2022/12/19 13:06:21;;;;;;;1.95;1.75;;;11.70;99.90;;;;;;5065794;28;20536;-82
2022/12/19 13:08:49;;;;;;;2.42;1.77;;;11.70;99.90;;;;;;5052934;28;20636;-82
2022/12/19 13:14:03;;;;;;;2.58;2.00;;;11.70;99.90;;;;;;5044367;28;20287;-81
2022/12/19 13:16:44;;;;;;;3.85;2.00;;;11.70;99.90;;;;;;5051535;28;20163;-80
2022/12/19 13:19:25;;;;;;;2.65;1.88;;;11.60;99.90;;;;;;5058451;28;20163;-79
2022/12/19 13:22:06;;;;;;;2.13;1.92;;;11.70;99.90;;;;;;5053896;28;20190;-79